sensor_id;sensor_type;location;lat;lon;timestamp;P1;durP1;ratioP1;P2;durP2;ratioP2
52730;SDS011;38624;53.242;6.974;2023-11-19T00:00:26;52.60;;;15.93;;
52730;SDS011;38624;53.242;6.974;2023-11-19T00:02:52;45.43;;;15.63;;
52730;SDS011;38624;53.242;6.974;2023-11-19T00:05:18;39.15;;;15.13;;
52730;SDS011;38624;53.242;6.974;2023-11-19T00:07:44;43.45;;;16.20;;
52730;SDS011;38624;53.242;6.974;2023-11-19T00:10:10;30.15;;;12.65;;
52730;SDS011;38624;53.242;6.974;2023-11-19T00:12:38;59.15;;;18.35;;
52730;SDS011;38624;53.242;6.974;2023-11-19T00:15:09;46.75;;;17.33;;
52730;SDS011;38624;53.242;6.974;2023-11-19T00:17:39;56.25;;;17.30;;
52730;SDS011;38624;53.242;6.974;2023-11-19T00:20:06;48.05;;;17.13;;
52730;SDS011;38624;53.242;6.974;2023-11-19T00:22:32;39.10;;;15.45;;
52730;SDS011;38624;53.242;6.974;2023-11-19T00:24:58;39.53;;;16.52;;
52730;SDS011;38624;53.242;6.974;2023-11-19T00:27:24;48.83;;;18.50;;
52730;SDS011;38624;53.242;6.974;2023-11-19T00:29:51;52.42;;;18.42;;
52730;SDS011;38624;53.242;6.974;2023-11-19T00:32:16;44.53;;;17.48;;
52730;SDS011;38624;53.242;6.974;2023-11-19T00:34:45;54.97;;;19.52;;
52730;SDS011;38624;53.242;6.974;2023-11-19T00:37:12;44.55;;;17.23;;
52730;SDS011;38624;53.242;6.974;2023-11-19T00:39:40;37.72;;;16.13;;
52730;SDS011;38624;53.242;6.974;2023-11-19T00:42:09;45.90;;;16.48;;
52730;SDS011;38624;53.242;6.974;2023-11-19T00:44:38;43.88;;;17.45;;
52730;SDS011;38624;53.242;6.974;2023-11-19T00:47:04;38.78;;;16.70;;
52730;SDS011;38624;53.242;6.974;2023-11-19T00:49:30;49.25;;;17.95;;
52730;SDS011;38624;53.242;6.974;2023-11-19T00:52:00;40.13;;;16.65;;
52730;SDS011;38624;53.242;6.974;2023-11-19T00:54:27;33.03;;;14.70;;
52730;SDS011;38624;53.242;6.974;2023-11-19T00:56:53;49.83;;;19.05;;
52730;SDS011;38624;53.242;6.974;2023-11-19T00:59:19;46.33;;;18.52;;
52730;SDS011;38624;53.242;6.974;2023-11-19T01:01:45;39.92;;;17.23;;
52730;SDS011;38624;53.242;6.974;2023-11-19T01:04:10;49.65;;;19.35;;
52730;SDS011;38624;53.242;6.974;2023-11-19T01:06:36;43.72;;;18.50;;
52730;SDS011;38624;53.242;6.974;2023-11-19T01:09:02;39.17;;;16.92;;
52730;SDS011;38624;53.242;6.974;2023-11-19T01:11:27;56.72;;;19.10;;
52730;SDS011;38624;53.242;6.974;2023-11-19T01:13:53;53.60;;;18.90;;
52730;SDS011;38624;53.242;6.974;2023-11-19T01:16:19;41.95;;;17.45;;
52730;SDS011;38624;53.242;6.974;2023-11-19T01:18:49;40.00;;;15.40;;
52730;SDS011;38624;53.242;6.974;2023-11-19T01:21:15;43.88;;;16.40;;
52730;SDS011;38624;53.242;6.974;2023-11-19T01:23:41;41.65;;;17.00;;
52730;SDS011;38624;53.242;6.974;2023-11-19T01:26:08;46.83;;;17.83;;
52730;SDS011;38624;53.242;6.974;2023-11-19T01:28:38;60.90;;;18.92;;
52730;SDS011;38624;53.242;6.974;2023-11-19T01:31:10;33.13;;;15.02;;
52730;SDS011;38624;53.242;6.974;2023-11-19T01:33:37;47.00;;;16.95;;
52730;SDS011;38624;53.242;6.974;2023-11-19T01:36:03;39.20;;;14.57;;
52730;SDS011;38624;53.242;6.974;2023-11-19T01:38:30;36.78;;;14.02;;
52730;SDS011;38624;53.242;6.974;2023-11-19T01:40:58;48.28;;;13.85;;
52730;SDS011;38624;53.242;6.974;2023-11-19T01:43:33;36.72;;;10.57;;
52730;SDS011;38624;53.242;6.974;2023-11-19T01:46:12;35.10;;;9.55;;
52730;SDS011;38624;53.242;6.974;2023-11-19T01:48:45;21.60;;;6.25;;
52730;SDS011;38624;53.242;6.974;2023-11-19T01:51:12;38.35;;;7.68;;
52730;SDS011;38624;53.242;6.974;2023-11-19T01:53:41;35.75;;;7.65;;
52730;SDS011;38624;53.242;6.974;2023-11-19T01:56:08;36.50;;;7.85;;
52730;SDS011;38624;53.242;6.974;2023-11-19T01:58:36;46.53;;;6.88;;
52730;SDS011;38624;53.242;6.974;2023-11-19T02:01:02;36.50;;;6.90;;
52730;SDS011;38624;53.242;6.974;2023-11-19T02:03:30;24.60;;;5.35;;
52730;SDS011;38624;53.242;6.974;2023-11-19T02:05:57;25.00;;;5.85;;
52730;SDS011;38624;53.242;6.974;2023-11-19T02:08:24;48.28;;;7.22;;
52730;SDS011;38624;53.242;6.974;2023-11-19T02:10:51;41.47;;;7.05;;
52730;SDS011;38624;53.242;6.974;2023-11-19T02:13:17;36.50;;;6.70;;
52730;SDS011;38624;53.242;6.974;2023-11-19T02:15:43;29.02;;;5.40;;
52730;SDS011;38624;53.242;6.974;2023-11-19T02:18:22;44.22;;;6.75;;
52730;SDS011;38624;53.242;6.974;2023-11-19T02:20:53;37.13;;;6.05;;
52730;SDS011;38624;53.242;6.974;2023-11-19T02:23:19;34.20;;;6.05;;
52730;SDS011;38624;53.242;6.974;2023-11-19T02:25:53;38.83;;;6.35;;
52730;SDS011;38624;53.242;6.974;2023-11-19T02:28:24;25.77;;;4.97;;
52730;SDS011;38624;53.242;6.974;2023-11-19T02:30:49;35.42;;;5.88;;
52730;SDS011;38624;53.242;6.974;2023-11-19T02:33:15;45.78;;;6.65;;
52730;SDS011;38624;53.242;6.974;2023-11-19T02:35:41;41.17;;;6.53;;
52730;SDS011;38624;53.242;6.974;2023-11-19T02:38:06;40.30;;;5.55;;
52730;SDS011;38624;53.242;6.974;2023-11-19T02:40:32;34.93;;;5.93;;
52730;SDS011;38624;53.242;6.974;2023-11-19T02:42:58;32.00;;;4.75;;
52730;SDS011;38624;53.242;6.974;2023-11-19T02:45:24;29.58;;;5.40;;
52730;SDS011;38624;53.242;6.974;2023-11-19T02:47:51;41.60;;;6.38;;
52730;SDS011;38624;53.242;6.974;2023-11-19T02:50:18;30.88;;;5.13;;
52730;SDS011;38624;53.242;6.974;2023-11-19T02:52:50;36.53;;;6.25;;
52730;SDS011;38624;53.242;6.974;2023-11-19T02:55:17;39.67;;;6.03;;
52730;SDS011;38624;53.242;6.974;2023-11-19T02:57:43;29.33;;;5.45;;
52730;SDS011;38624;53.242;6.974;2023-11-19T03:00:31;27.13;;;5.25;;
52730;SDS011;38624;53.242;6.974;2023-11-19T03:02:59;21.52;;;4.85;;
52730;SDS011;38624;53.242;6.974;2023-11-19T03:05:30;28.00;;;4.65;;
52730;SDS011;38624;53.242;6.974;2023-11-19T03:07:56;33.13;;;5.57;;
52730;SDS011;38624;53.242;6.974;2023-11-19T03:10:22;26.42;;;4.93;;
52730;SDS011;38624;53.242;6.974;2023-11-19T03:12:49;35.05;;;5.60;;
52730;SDS011;38624;53.242;6.974;2023-11-19T03:15:14;30.25;;;5.45;;
52730;SDS011;38624;53.242;6.974;2023-11-19T03:17:41;36.88;;;4.97;;
52730;SDS011;38624;53.242;6.974;2023-11-19T03:20:10;20.55;;;3.70;;
52730;SDS011;38624;53.242;6.974;2023-11-19T03:22:40;40.38;;;6.28;;
52730;SDS011;38624;53.242;6.974;2023-11-19T03:25:09;35.80;;;5.68;;
52730;SDS011;38624;53.242;6.974;2023-11-19T03:27:36;32.97;;;6.47;;
52730;SDS011;38624;53.242;6.974;2023-11-19T03:30:03;42.63;;;6.43;;
52730;SDS011;38624;53.242;6.974;2023-11-19T03:32:31;37.38;;;5.55;;
52730;SDS011;38624;53.242;6.974;2023-11-19T03:37:23;42.75;;;6.75;;
52730;SDS011;38624;53.242;6.974;2023-11-19T03:39:49;39.67;;;6.22;;
52730;SDS011;38624;53.242;6.974;2023-11-19T03:42:14;32.95;;;5.28;;
52730;SDS011;38624;53.242;6.974;2023-11-19T03:44:40;36.80;;;5.55;;
52730;SDS011;38624;53.242;6.974;2023-11-19T03:47:06;34.60;;;5.68;;
52730;SDS011;38624;53.242;6.974;2023-11-19T03:49:31;34.22;;;5.85;;
52730;SDS011;38624;53.242;6.974;2023-11-19T03:51:57;39.28;;;6.57;;
52730;SDS011;38624;53.242;6.974;2023-11-19T03:54:23;38.33;;;7.05;;
52730;SDS011;38624;53.242;6.974;2023-11-19T03:56:48;33.20;;;4.80;;
52730;SDS011;38624;53.242;6.974;2023-11-19T03:59:14;32.00;;;5.20;;
52730;SDS011;38624;53.242;6.974;2023-11-19T04:01:40;38.45;;;6.18;;
52730;SDS011;38624;53.242;6.974;2023-11-19T04:04:06;40.33;;;6.05;;
52730;SDS011;38624;53.242;6.974;2023-11-19T04:06:32;32.35;;;5.20;;
52730;SDS011;38624;53.242;6.974;2023-11-19T04:08:57;42.05;;;5.15;;
52730;SDS011;38624;53.242;6.974;2023-11-19T04:11:23;37.43;;;6.10;;
52730;SDS011;38624;53.242;6.974;2023-11-19T04:13:49;39.30;;;6.13;;
52730;SDS011;38624;53.242;6.974;2023-11-19T04:16:14;37.60;;;5.73;;
52730;SDS011;38624;53.242;6.974;2023-11-19T04:18:40;38.40;;;5.88;;
52730;SDS011;38624;53.242;6.974;2023-11-19T04:21:06;29.25;;;4.95;;
52730;SDS011;38624;53.242;6.974;2023-11-19T04:23:33;39.05;;;6.50;;
52730;SDS011;38624;53.242;6.974;2023-11-19T04:26:01;32.05;;;5.18;;
52730;SDS011;38624;53.242;6.974;2023-11-19T04:28:27;24.88;;;4.50;;
52730;SDS011;38624;53.242;6.974;2023-11-19T04:30:53;38.00;;;5.60;;
52730;SDS011;38624;53.242;6.974;2023-11-19T04:33:19;38.10;;;5.50;;
52730;SDS011;38624;53.242;6.974;2023-11-19T04:35:45;30.90;;;5.27;;
52730;SDS011;38624;53.242;6.974;2023-11-19T04:38:10;37.50;;;5.30;;
52730;SDS011;38624;53.242;6.974;2023-11-19T04:40:36;30.77;;;5.07;;
52730;SDS011;38624;53.242;6.974;2023-11-19T04:43:02;40.42;;;5.38;;
52730;SDS011;38624;53.242;6.974;2023-11-19T04:45:27;43.00;;;6.45;;
52730;SDS011;38624;53.242;6.974;2023-11-19T04:47:53;33.72;;;5.05;;
52730;SDS011;38624;53.242;6.974;2023-11-19T04:50:19;31.30;;;4.65;;
52730;SDS011;38624;53.242;6.974;2023-11-19T04:52:44;28.08;;;5.00;;
52730;SDS011;38624;53.242;6.974;2023-11-19T04:55:10;37.17;;;4.90;;
52730;SDS011;38624;53.242;6.974;2023-11-19T04:57:37;27.17;;;4.22;;
52730;SDS011;38624;53.242;6.974;2023-11-19T05:00:03;34.75;;;4.85;;
52730;SDS011;38624;53.242;6.974;2023-11-19T05:04:55;28.13;;;3.88;;
52730;SDS011;38624;53.242;6.974;2023-11-19T05:07:21;37.10;;;5.55;;
52730;SDS011;38624;53.242;6.974;2023-11-19T05:09:47;42.53;;;6.60;;
52730;SDS011;38624;53.242;6.974;2023-11-19T05:12:13;26.67;;;4.10;;
52730;SDS011;38624;53.242;6.974;2023-11-19T05:14:38;33.30;;;5.22;;
52730;SDS011;38624;53.242;6.974;2023-11-19T05:17:04;44.95;;;8.43;;
52730;SDS011;38624;53.242;6.974;2023-11-19T05:19:30;31.27;;;5.90;;
52730;SDS011;38624;53.242;6.974;2023-11-19T05:21:55;36.95;;;5.97;;
52730;SDS011;38624;53.242;6.974;2023-11-19T05:24:22;36.03;;;5.80;;
52730;SDS011;38624;53.242;6.974;2023-11-19T05:26:48;37.45;;;5.57;;
52730;SDS011;38624;53.242;6.974;2023-11-19T05:29:15;27.10;;;4.70;;
52730;SDS011;38624;53.242;6.974;2023-11-19T05:31:41;44.05;;;6.07;;
52730;SDS011;38624;53.242;6.974;2023-11-19T05:34:06;28.30;;;5.07;;
52730;SDS011;38624;53.242;6.974;2023-11-19T05:36:32;35.90;;;6.30;;
52730;SDS011;38624;53.242;6.974;2023-11-19T05:38:58;28.10;;;4.70;;
52730;SDS011;38624;53.242;6.974;2023-11-19T05:41:23;33.00;;;5.60;;
52730;SDS011;38624;53.242;6.974;2023-11-19T05:43:49;41.90;;;6.97;;
52730;SDS011;38624;53.242;6.974;2023-11-19T05:46:15;33.22;;;5.90;;
52730;SDS011;38624;53.242;6.974;2023-11-19T05:48:41;42.83;;;5.68;;
52730;SDS011;38624;53.242;6.974;2023-11-19T05:51:07;28.97;;;4.40;;
52730;SDS011;38624;53.242;6.974;2023-11-19T05:53:33;27.33;;;4.43;;
52730;SDS011;38624;53.242;6.974;2023-11-19T05:55:59;40.75;;;5.25;;
52730;SDS011;38624;53.242;6.974;2023-11-19T05:58:28;37.72;;;6.18;;
52730;SDS011;38624;53.242;6.974;2023-11-19T06:00:55;34.50;;;6.38;;
52730;SDS011;38624;53.242;6.974;2023-11-19T06:03:22;39.13;;;5.80;;
52730;SDS011;38624;53.242;6.974;2023-11-19T06:05:48;27.60;;;4.65;;
52730;SDS011;38624;53.242;6.974;2023-11-19T06:08:14;41.80;;;5.40;;
52730;SDS011;38624;53.242;6.974;2023-11-19T06:10:41;29.88;;;4.25;;
52730;SDS011;38624;53.242;6.974;2023-11-19T06:13:07;42.13;;;6.47;;
52730;SDS011;38624;53.242;6.974;2023-11-19T06:15:35;38.40;;;4.65;;
52730;SDS011;38624;53.242;6.974;2023-11-19T06:18:01;35.77;;;5.50;;
52730;SDS011;38624;53.242;6.974;2023-11-19T06:20:32;20.42;;;3.25;;
52730;SDS011;38624;53.242;6.974;2023-11-19T06:22:58;24.15;;;4.07;;
52730;SDS011;38624;53.242;6.974;2023-11-19T06:25:25;33.00;;;4.93;;
52730;SDS011;38624;53.242;6.974;2023-11-19T06:27:51;42.88;;;5.85;;
52730;SDS011;38624;53.242;6.974;2023-11-19T06:30:17;33.70;;;6.32;;
52730;SDS011;38624;53.242;6.974;2023-11-19T06:32:43;29.80;;;4.95;;
52730;SDS011;38624;53.242;6.974;2023-11-19T06:35:09;37.17;;;5.30;;
52730;SDS011;38624;53.242;6.974;2023-11-19T06:37:35;23.90;;;4.25;;
52730;SDS011;38624;53.242;6.974;2023-11-19T06:40:03;25.90;;;4.47;;
52730;SDS011;38624;53.242;6.974;2023-11-19T06:42:30;38.72;;;5.82;;
52730;SDS011;38624;53.242;6.974;2023-11-19T06:44:56;29.33;;;4.73;;
52730;SDS011;38624;53.242;6.974;2023-11-19T06:47:25;34.83;;;5.28;;
52730;SDS011;38624;53.242;6.974;2023-11-19T06:49:52;43.25;;;5.32;;
52730;SDS011;38624;53.242;6.974;2023-11-19T06:52:18;21.33;;;4.15;;
52730;SDS011;38624;53.242;6.974;2023-11-19T06:54:44;36.10;;;6.25;;
52730;SDS011;38624;53.242;6.974;2023-11-19T06:57:13;38.28;;;7.13;;
52730;SDS011;38624;53.242;6.974;2023-11-19T06:59:39;41.20;;;5.95;;
52730;SDS011;38624;53.242;6.974;2023-11-19T07:02:05;42.47;;;7.20;;
52730;SDS011;38624;53.242;6.974;2023-11-19T07:04:32;33.70;;;5.05;;
52730;SDS011;38624;53.242;6.974;2023-11-19T07:07:00;25.65;;;4.95;;
52730;SDS011;38624;53.242;6.974;2023-11-19T07:09:26;31.45;;;4.22;;
52730;SDS011;38624;53.242;6.974;2023-11-19T07:11:52;26.80;;;4.63;;
52730;SDS011;38624;53.242;6.974;2023-11-19T07:14:18;28.98;;;5.55;;
52730;SDS011;38624;53.242;6.974;2023-11-19T07:16:44;48.08;;;7.70;;
52730;SDS011;38624;53.242;6.974;2023-11-19T07:19:11;49.97;;;7.03;;
52730;SDS011;38624;53.242;6.974;2023-11-19T07:21:37;40.17;;;5.63;;
52730;SDS011;38624;53.242;6.974;2023-11-19T07:24:09;38.15;;;6.50;;
52730;SDS011;38624;53.242;6.974;2023-11-19T07:26:35;37.45;;;5.57;;
52730;SDS011;38624;53.242;6.974;2023-11-19T07:29:02;34.97;;;4.97;;
52730;SDS011;38624;53.242;6.974;2023-11-19T07:31:28;25.08;;;4.78;;
52730;SDS011;38624;53.242;6.974;2023-11-19T07:33:54;21.63;;;4.43;;
52730;SDS011;38624;53.242;6.974;2023-11-19T07:36:19;30.05;;;4.90;;
52730;SDS011;38624;53.242;6.974;2023-11-19T07:38:45;38.50;;;5.22;;
52730;SDS011;38624;53.242;6.974;2023-11-19T07:41:12;31.60;;;4.57;;
52730;SDS011;38624;53.242;6.974;2023-11-19T07:43:44;37.30;;;5.40;;
52730;SDS011;38624;53.242;6.974;2023-11-19T07:46:11;37.78;;;5.85;;
52730;SDS011;38624;53.242;6.974;2023-11-19T07:48:41;30.20;;;4.22;;
52730;SDS011;38624;53.242;6.974;2023-11-19T07:51:07;43.65;;;6.40;;
52730;SDS011;38624;53.242;6.974;2023-11-19T07:53:33;39.35;;;6.18;;
52730;SDS011;38624;53.242;6.974;2023-11-19T07:55:59;29.52;;;3.85;;
52730;SDS011;38624;53.242;6.974;2023-11-19T07:58:25;34.03;;;6.35;;
52730;SDS011;38624;53.242;6.974;2023-11-19T08:00:54;33.97;;;5.93;;
52730;SDS011;38624;53.242;6.974;2023-11-19T08:03:20;36.50;;;5.65;;
52730;SDS011;38624;53.242;6.974;2023-11-19T08:05:48;30.35;;;4.38;;
52730;SDS011;38624;53.242;6.974;2023-11-19T08:08:14;36.50;;;6.63;;
52730;SDS011;38624;53.242;6.974;2023-11-19T08:10:40;47.60;;;6.78;;
52730;SDS011;38624;53.242;6.974;2023-11-19T08:13:06;41.77;;;6.20;;
52730;SDS011;38624;53.242;6.974;2023-11-19T08:15:35;39.30;;;6.13;;
52730;SDS011;38624;53.242;6.974;2023-11-19T08:18:00;41.25;;;5.13;;
52730;SDS011;38624;53.242;6.974;2023-11-19T08:20:27;41.10;;;6.00;;
52730;SDS011;38624;53.242;6.974;2023-11-19T08:22:52;35.28;;;5.60;;
52730;SDS011;38624;53.242;6.974;2023-11-19T08:25:18;22.20;;;4.15;;
52730;SDS011;38624;53.242;6.974;2023-11-19T08:27:44;37.92;;;6.93;;
52730;SDS011;38624;53.242;6.974;2023-11-19T08:30:10;48.55;;;7.72;;
52730;SDS011;38624;53.242;6.974;2023-11-19T08:32:36;27.23;;;4.97;;
52730;SDS011;38624;53.242;6.974;2023-11-19T08:35:01;35.33;;;6.38;;
52730;SDS011;38624;53.242;6.974;2023-11-19T08:37:27;28.85;;;5.25;;
52730;SDS011;38624;53.242;6.974;2023-11-19T08:39:53;47.85;;;6.68;;
52730;SDS011;38624;53.242;6.974;2023-11-19T08:42:19;32.42;;;5.20;;
52730;SDS011;38624;53.242;6.974;2023-11-19T08:44:48;34.00;;;5.40;;
52730;SDS011;38624;53.242;6.974;2023-11-19T08:47:29;41.47;;;6.05;;
52730;SDS011;38624;53.242;6.974;2023-11-19T08:49:55;36.95;;;5.68;;
52730;SDS011;38624;53.242;6.974;2023-11-19T08:52:21;44.45;;;6.28;;
52730;SDS011;38624;53.242;6.974;2023-11-19T08:54:47;31.43;;;5.60;;
52730;SDS011;38624;53.242;6.974;2023-11-19T08:57:13;40.83;;;6.07;;
52730;SDS011;38624;53.242;6.974;2023-11-19T08:59:38;40.10;;;5.90;;
52730;SDS011;38624;53.242;6.974;2023-11-19T09:02:07;30.63;;;4.18;;
52730;SDS011;38624;53.242;6.974;2023-11-19T09:04:34;32.78;;;5.03;;
52730;SDS011;38624;53.242;6.974;2023-11-19T09:07:01;40.45;;;5.68;;
52730;SDS011;38624;53.242;6.974;2023-11-19T09:09:26;33.55;;;6.82;;
52730;SDS011;38624;53.242;6.974;2023-11-19T09:11:52;34.35;;;6.10;;
52730;SDS011;38624;53.242;6.974;2023-11-19T09:14:18;29.65;;;5.20;;
52730;SDS011;38624;53.242;6.974;2023-11-19T09:16:47;38.08;;;5.68;;
52730;SDS011;38624;53.242;6.974;2023-11-19T09:19:12;30.30;;;4.35;;
52730;SDS011;38624;53.242;6.974;2023-11-19T09:21:38;37.58;;;6.05;;
52730;SDS011;38624;53.242;6.974;2023-11-19T09:24:04;26.57;;;4.77;;
52730;SDS011;38624;53.242;6.974;2023-11-19T09:26:30;30.00;;;5.57;;
52730;SDS011;38624;53.242;6.974;2023-11-19T09:28:56;33.90;;;5.20;;
52730;SDS011;38624;53.242;6.974;2023-11-19T09:31:21;39.63;;;5.53;;
52730;SDS011;38624;53.242;6.974;2023-11-19T09:33:47;32.72;;;5.47;;
52730;SDS011;38624;53.242;6.974;2023-11-19T09:36:13;37.83;;;5.35;;
52730;SDS011;38624;53.242;6.974;2023-11-19T09:38:45;31.70;;;5.30;;
52730;SDS011;38624;53.242;6.974;2023-11-19T09:41:11;34.70;;;5.80;;
52730;SDS011;38624;53.242;6.974;2023-11-19T09:43:41;33.08;;;6.10;;
52730;SDS011;38624;53.242;6.974;2023-11-19T09:46:12;36.13;;;6.40;;
52730;SDS011;38624;53.242;6.974;2023-11-19T09:48:40;33.15;;;5.05;;
52730;SDS011;38624;53.242;6.974;2023-11-19T09:53:34;34.35;;;5.53;;
52730;SDS011;38624;53.242;6.974;2023-11-19T09:56:01;30.38;;;4.43;;
52730;SDS011;38624;53.242;6.974;2023-11-19T10:00:57;30.13;;;5.03;;
52730;SDS011;38624;53.242;6.974;2023-11-19T10:03:24;28.75;;;5.15;;
52730;SDS011;38624;53.242;6.974;2023-11-19T10:06:03;36.33;;;5.72;;
52730;SDS011;38624;53.242;6.974;2023-11-19T10:08:29;38.72;;;5.82;;
52730;SDS011;38624;53.242;6.974;2023-11-19T10:10:55;40.60;;;6.47;;
52730;SDS011;38624;53.242;6.974;2023-11-19T10:13:25;40.17;;;6.78;;
52730;SDS011;38624;53.242;6.974;2023-11-19T10:15:53;39.72;;;5.93;;
52730;SDS011;38624;53.242;6.974;2023-11-19T10:18:23;35.67;;;5.47;;
52730;SDS011;38624;53.242;6.974;2023-11-19T10:20:50;28.70;;;5.00;;
52730;SDS011;38624;53.242;6.974;2023-11-19T10:23:16;41.25;;;6.45;;
52730;SDS011;38624;53.242;6.974;2023-11-19T10:25:42;40.55;;;5.60;;
52730;SDS011;38624;53.242;6.974;2023-11-19T10:28:07;25.48;;;3.50;;
52730;SDS011;38624;53.242;6.974;2023-11-19T10:30:33;34.97;;;6.00;;
52730;SDS011;38624;53.242;6.974;2023-11-19T10:35:31;32.50;;;5.07;;
52730;SDS011;38624;53.242;6.974;2023-11-19T10:38:02;32.90;;;4.50;;
52730;SDS011;38624;53.242;6.974;2023-11-19T10:40:40;37.22;;;5.28;;
52730;SDS011;38624;53.242;6.974;2023-11-19T10:43:06;31.00;;;4.80;;
52730;SDS011;38624;53.242;6.974;2023-11-19T10:45:33;41.17;;;5.63;;
52730;SDS011;38624;53.242;6.974;2023-11-19T10:47:59;27.85;;;4.55;;
52730;SDS011;38624;53.242;6.974;2023-11-19T10:52:55;28.17;;;4.45;;
52730;SDS011;38624;53.242;6.974;2023-11-19T10:55:25;34.97;;;5.05;;
52730;SDS011;38624;53.242;6.974;2023-11-19T10:57:53;29.20;;;5.18;;
52730;SDS011;38624;53.242;6.974;2023-11-19T11:00:29;35.85;;;5.47;;
52730;SDS011;38624;53.242;6.974;2023-11-19T11:03:01;35.47;;;4.93;;
52730;SDS011;38624;53.242;6.974;2023-11-19T11:05:33;24.67;;;4.53;;
52730;SDS011;38624;53.242;6.974;2023-11-19T11:08:00;36.13;;;5.10;;
52730;SDS011;38624;53.242;6.974;2023-11-19T11:10:26;36.58;;;5.85;;
52730;SDS011;38624;53.242;6.974;2023-11-19T11:12:54;26.75;;;4.85;;
52730;SDS011;38624;53.242;6.974;2023-11-19T11:15:27;36.70;;;5.45;;
52730;SDS011;38624;53.242;6.974;2023-11-19T11:17:56;38.58;;;5.10;;
52730;SDS011;38624;53.242;6.974;2023-11-19T11:20:30;31.98;;;4.53;;
52730;SDS011;38624;53.242;6.974;2023-11-19T11:23:11;41.58;;;5.93;;
52730;SDS011;38624;53.242;6.974;2023-11-19T11:28:50;36.40;;;5.97;;
52730;SDS011;38624;53.242;6.974;2023-11-19T11:39:21;33.67;;;5.30;;
52730;SDS011;38624;53.242;6.974;2023-11-19T11:41:58;31.23;;;4.15;;
52730;SDS011;38624;53.242;6.974;2023-11-19T11:44:59;31.98;;;5.47;;
52730;SDS011;38624;53.242;6.974;2023-11-19T11:47:25;32.80;;;5.45;;
52730;SDS011;38624;53.242;6.974;2023-11-19T11:50:12;25.92;;;5.30;;
52730;SDS011;38624;53.242;6.974;2023-11-19T11:58:20;34.53;;;5.07;;
52730;SDS011;38624;53.242;6.974;2023-11-19T12:00:47;24.17;;;4.05;;
52730;SDS011;38624;53.242;6.974;2023-11-19T12:03:13;24.55;;;4.65;;
52730;SDS011;38624;53.242;6.974;2023-11-19T12:05:45;31.77;;;4.53;;
52730;SDS011;38624;53.242;6.974;2023-11-19T12:08:12;35.60;;;4.90;;
52730;SDS011;38624;53.242;6.974;2023-11-19T12:10:49;37.40;;;4.97;;
52730;SDS011;38624;53.242;6.974;2023-11-19T12:13:17;28.35;;;5.00;;
52730;SDS011;38624;53.242;6.974;2023-11-19T12:18:26;32.20;;;5.18;;
52730;SDS011;38624;53.242;6.974;2023-11-19T12:20:53;36.28;;;4.43;;
52730;SDS011;38624;53.242;6.974;2023-11-19T12:23:19;39.30;;;6.50;;
52730;SDS011;38624;53.242;6.974;2023-11-19T12:25:45;36.35;;;5.72;;
52730;SDS011;38624;53.242;6.974;2023-11-19T12:28:12;30.77;;;4.68;;
52730;SDS011;38624;53.242;6.974;2023-11-19T12:30:39;37.55;;;5.50;;
52730;SDS011;38624;53.242;6.974;2023-11-19T12:33:08;38.00;;;6.20;;
52730;SDS011;38624;53.242;6.974;2023-11-19T12:35:47;38.08;;;5.20;;
52730;SDS011;38624;53.242;6.974;2023-11-19T12:38:20;32.70;;;4.93;;
52730;SDS011;38624;53.242;6.974;2023-11-19T12:40:47;26.88;;;4.28;;
52730;SDS011;38624;53.242;6.974;2023-11-19T12:43:22;25.92;;;4.47;;
52730;SDS011;38624;53.242;6.974;2023-11-19T12:45:48;25.83;;;4.68;;
52730;SDS011;38624;53.242;6.974;2023-11-19T12:48:13;24.88;;;3.90;;
52730;SDS011;38624;53.242;6.974;2023-11-19T12:50:52;31.37;;;4.73;;
52730;SDS011;38624;53.242;6.974;2023-11-19T12:53:18;29.75;;;4.15;;
52730;SDS011;38624;53.242;6.974;2023-11-19T12:55:44;22.70;;;3.85;;
52730;SDS011;38624;53.242;6.974;2023-11-19T12:58:10;23.33;;;4.55;;
52730;SDS011;38624;53.242;6.974;2023-11-19T13:00:58;24.15;;;4.72;;
52730;SDS011;38624;53.242;6.974;2023-11-19T13:03:34;21.77;;;3.30;;
52730;SDS011;38624;53.242;6.974;2023-11-19T13:06:01;27.10;;;3.90;;
52730;SDS011;38624;53.242;6.974;2023-11-19T13:08:36;27.45;;;4.63;;
52730;SDS011;38624;53.242;6.974;2023-11-19T13:11:03;26.08;;;4.32;;
52730;SDS011;38624;53.242;6.974;2023-11-19T13:13:29;29.03;;;4.70;;
52730;SDS011;38624;53.242;6.974;2023-11-19T13:16:02;32.40;;;5.40;;
52730;SDS011;38624;53.242;6.974;2023-11-19T13:18:30;24.05;;;4.13;;
52730;SDS011;38624;53.242;6.974;2023-11-19T13:20:56;26.90;;;4.88;;
52730;SDS011;38624;53.242;6.974;2023-11-19T13:23:24;27.48;;;4.63;;
52730;SDS011;38624;53.242;6.974;2023-11-19T13:25:50;28.33;;;5.18;;
52730;SDS011;38624;53.242;6.974;2023-11-19T13:28:16;20.53;;;3.80;;
52730;SDS011;38624;53.242;6.974;2023-11-19T13:30:41;25.83;;;4.07;;
52730;SDS011;38624;53.242;6.974;2023-11-19T13:33:07;31.02;;;4.35;;
52730;SDS011;38624;53.242;6.974;2023-11-19T13:35:35;21.58;;;4.07;;
52730;SDS011;38624;53.242;6.974;2023-11-19T13:38:01;26.95;;;4.15;;
52730;SDS011;38624;53.242;6.974;2023-11-19T13:40:27;32.05;;;4.85;;
52730;SDS011;38624;53.242;6.974;2023-11-19T13:42:53;26.17;;;4.47;;
52730;SDS011;38624;53.242;6.974;2023-11-19T13:45:19;22.20;;;3.47;;
52730;SDS011;38624;53.242;6.974;2023-11-19T13:47:45;18.35;;;3.10;;
52730;SDS011;38624;53.242;6.974;2023-11-19T13:50:12;34.42;;;5.15;;
52730;SDS011;38624;53.242;6.974;2023-11-19T13:52:42;24.00;;;3.92;;
52730;SDS011;38624;53.242;6.974;2023-11-19T13:55:11;22.02;;;3.10;;
52730;SDS011;38624;53.242;6.974;2023-11-19T13:57:37;23.23;;;4.13;;
52730;SDS011;38624;53.242;6.974;2023-11-19T14:00:05;23.08;;;3.72;;
52730;SDS011;38624;53.242;6.974;2023-11-19T14:02:35;22.85;;;4.13;;
52730;SDS011;38624;53.242;6.974;2023-11-19T14:05:01;23.00;;;3.97;;
52730;SDS011;38624;53.242;6.974;2023-11-19T14:07:27;26.93;;;4.07;;
52730;SDS011;38624;53.242;6.974;2023-11-19T14:09:53;23.23;;;3.53;;
52730;SDS011;38624;53.242;6.974;2023-11-19T14:12:19;22.42;;;3.85;;
52730;SDS011;38624;53.242;6.974;2023-11-19T14:14:45;28.58;;;3.63;;
52730;SDS011;38624;53.242;6.974;2023-11-19T14:17:11;26.05;;;4.10;;
52730;SDS011;38624;53.242;6.974;2023-11-19T14:19:37;28.00;;;4.03;;
52730;SDS011;38624;53.242;6.974;2023-11-19T14:22:04;28.40;;;3.92;;
52730;SDS011;38624;53.242;6.974;2023-11-19T14:24:30;27.95;;;4.40;;
52730;SDS011;38624;53.242;6.974;2023-11-19T14:26:56;26.33;;;3.80;;
52730;SDS011;38624;53.242;6.974;2023-11-19T14:29:24;20.35;;;4.18;;
52730;SDS011;38624;53.242;6.974;2023-11-19T14:31:56;28.38;;;3.60;;
52730;SDS011;38624;53.242;6.974;2023-11-19T14:34:23;20.10;;;3.50;;
52730;SDS011;38624;53.242;6.974;2023-11-19T14:36:51;46.47;;;3.42;;
52730;SDS011;38624;53.242;6.974;2023-11-19T14:39:17;25.02;;;4.70;;
52730;SDS011;38624;53.242;6.974;2023-11-19T14:41:43;30.20;;;4.17;;
52730;SDS011;38624;53.242;6.974;2023-11-19T14:44:09;32.15;;;4.53;;
52730;SDS011;38624;53.242;6.974;2023-11-19T14:46:35;32.70;;;4.90;;
52730;SDS011;38624;53.242;6.974;2023-11-19T14:49:01;36.40;;;4.40;;
52730;SDS011;38624;53.242;6.974;2023-11-19T14:51:28;29.70;;;5.18;;
52730;SDS011;38624;53.242;6.974;2023-11-19T14:53:54;28.08;;;3.70;;
52730;SDS011;38624;53.242;6.974;2023-11-19T14:56:20;29.75;;;4.50;;
52730;SDS011;38624;53.242;6.974;2023-11-19T14:58:46;29.65;;;4.53;;
52730;SDS011;38624;53.242;6.974;2023-11-19T15:01:12;35.00;;;4.95;;
52730;SDS011;38624;53.242;6.974;2023-11-19T15:03:38;24.20;;;4.03;;
52730;SDS011;38624;53.242;6.974;2023-11-19T15:06:05;24.60;;;4.00;;
52730;SDS011;38624;53.242;6.974;2023-11-19T15:08:32;20.70;;;3.85;;